Here is the Quick Look data you requested

The Data originates at the National Weather Service, and is made available here by the UAlbany Department of Atmospheric and Environmental Sciences

Surface Observations

PAAQ 142053Z 23003KT 10SM OVC070 M02/M02 A2943 RMK AO2 SLP971 T10221022 56012=
PABA 142052Z AUTO 06017KT 1 1/4SM -SN BR OVC013 M08/M08 A2963 RMK AO2 SLP019
 P0000 60000 T10781083 56004 FZRANO TSNO=
PABE 142053Z 01006KT 10SM FEW018 BKN023 OVC075 M06/M07 A2957 RMK AO2 SLP016
 60001 T10611067 56001=
PABI 142053Z 25006KT 10SM OVC060 M04/M06 A2952 RMK AO2 SLP023 T10441061 57015=
PABL 142056Z AUTO 14006KT 10SM BKN100 M07/M08 A2954 RMK AO2 SLP006 T10671083
 51015 FZRANO=
PABR 142053Z 06022KT 9SM OVC060 M17/M19 A2985 RMK AO2 PK WND 06030/2042 SLP111
 T11671194 53001=
PABT 142053Z 00000KT 10SM FEW011 OVC019 M02/M03 A2957 RMK AO2 SLP026 SHSN VC W
 T10171033 58002=
PABV 142056Z AUTO 21007KT 10SM SCT050 OVC060 M02/M03 A2946 RMK AO2 SLP985
 T10171028 57012 FZRANO $=
PACD 142053Z 15016G21KT 10SM CLR 01/M03 A2949 RMK AO2 SLP988 T00061028 56005=
PACV 142053Z 00000KT 8SM -RA OVC038 04/04 A2925 RMK AO2 SLP906 P0004 60019
 T00440044 56017=
PACZ 142055Z AUTO 07001KT 10SM SCT041 M07/M13 A2954 RMK AO2 SLP015 T10741126
 57002=
PADE 142053Z AUTO 16004KT 10SM OVC018 M04/M07 A2949 RMK AO2 SLP988 T10391072
 53015 TSNO $=
PADK 142056Z AUTO 24017G24KT 10SM FEW021 02/M01 A2890 RMK AO2 RAE15UPB23E34
 SLP786 P0000 60002 T00221006 55005 FZRANO=
PADL 142056Z 00000KT 9SM -SN SCT010 OVC040 M01/M01 A2959 RMK AO2 UPB32E37SNB37
 SLP024 P0000 60000 T10061011 53003=
PADQ 142053Z 28005KT 10SM CLR M01/M02 A2957 RMK AO2 SLP012 T10061022 51006 $=
PADU 142056Z 14017G25KT 5SM -SNRA BR SCT006 OVC014 04/01 A2929 RMK AO2 RAB31
 SLP924 VIS NE 2 CS P0007 60013 T00390011 58035=
PAED 142056Z AUTO 00000KT 10SM FEW045 FEW050 OVC075 M01/M01 A2945 RMK AO2 SLPNO
 T10121013 57010=
PAEG 142053Z AUTO 00000KT 10SM OVC090 M03/M05 A2950 RMK AO2 SLP000 T10281050
 56021 TSNO $=
PAEH 142055Z AUTO 20009KT 10SM SCT055 SCT060 02/01 A2951 RMK AO2 SLP000
 T00170008 53003 $=
PAEN 142053Z 19003KT 10SM FEW003 OVC065 M01/M02 A2949 RMK AO2 SLP987 T10111017
 56012=
PAFA 142053Z 05004KT 10SM FEW100 BKN150 BKN200 M13/M15 A2955 RMK AO2 SLP019
 T11331150 56015=
PAFE 142056Z AUTO 15010KT 10SM SCT020 BKN028 OVC095 08/06 A2995 RMK AO2 RAE20
 SLP156 P0000 60009 T00780056 51029=
PAFM 142056Z AUTO 14006KT 1 1/4SM -SN BR OVC004 M01/M01 A2958 RMK AO2 VIS 3/4V2
 SLP029 P0000 60000 T10061006 51006 FZRANO=
PAGA 142056Z AUTO 00000KT 1/2SM FZFG VV017 M06/M07 A2960 RMK AO2 SLP025
 T10611067 53003 FZRANO=
PAGK 142053Z AUTO 29003KT 4SM -SN BR OVC009 01/00 A2933 RMK AO2
 UPB28E37SNE28B53 SLP960 P0001 60009 T00060000 56025 TSNO=
PAGM 142056Z AUTO 28009G20KT 10SM OVC032 M06/M11 A2953 RMK AO2 SNB1958E26
 SLP006 P0000 60000 T10561111 55002 FZRANO=
PAGS 142056Z AUTO 14010KT 10SM -RA BKN037 OVC050 08/06 A2980 RMK AO2 SLP090
 P0001 60002 T00780061 53036=
PAGY 142053Z AUTO 21031G41KT 10SM -RA FEW049 OVC060 09/04 A2961 RMK AO2 PK WND
 19045/2010 RAB00 SLP028 P0000 60002 T00890044 55019 TSNO=
PAHN 142054Z AUTO 10017G30KT 4SM -RA BR BKN013 OVC020 07/06 A2967 RMK AO2 PK
 WND 10034/2002 SLP049 P0003 60006 T00720061 53004 TSNO=
PAHO 142053Z VRB05KT 10SM SCT020 BKN070 03/00 A2950 RMK AO2 SLP992 60000
 T00330000 56002 $=
PAHP 142056Z AUTO 05006KT 10SM OVC049 M07/M09 A2959 RMK AO2 SLP057 T10721089
 56001 FZRANO=
PAIL 142053Z 30004KT 10SM CLR M02/M03 A2957 RMK AO2 SLP017 I3000 T10221028
 53004=
PAIM 142055Z AUTO 00000KT 1 3/4SM -SHSN OVC006 M02/M02 A2953 RMK AO2
 SNB1955E2020SHRASNB2024E2035SHSNB2035 SLP022 P0000 60000 T10211021 54000=
PAIN 142056Z AUTO 35006KT 4SM -SN BR OVC019 M01/M03 A2947 RMK AO2 SNB35 SLP006
 P0000 60000 T10111028 56019 FZRANO=
PAKK 142056Z AUTO 00000KT 10SM CLR M07/M08 A2953 RMK AO2 SLP013 T10721083 51005
 FZRANO=
PAKN 142054Z 00000KT 10SM OVC036 M01/M01 A2956 RMK AO2 SLP011 I3000 T10111011
 53004=
PAKP 142056Z AUTO 23011KT 4SM -SN BR BKN047 OVC090 M02/M04 A2946 RMK AO2 SLP022
 P0000 60000 T10221039 51002 FZRANO=
PAKT 142053Z 14007KT 10SM SCT010 BKN022 BKN080 08/08 A3006 RMK AO2 RAB1956E10
 SLP180 HARBOR WIND 11014KT P0000 60004 T00830078 50003=
PAKU 142045Z 07021G27KT 2SM R06/P6000FT -SN BLSN SCT008 BKN022 OVC042 M13/M16
 A2969=
PAKV 142053Z AUTO 00000KT 4SM -SN BR OVC012 M05/M07 A2963 RMK AO2
 UPB17E41SNE17B28E38B53 SLP036 P0000 60000 T10501067 53007 FZRANO TSNO $=
PAKW 142053Z AUTO 20009KT 2 1/2SM -RA BR SCT006 OVC012 07/07 A3003 RMK AO2
 RAB27 SLP171 P0001 60003 T00720072 51023 TSNO=
PALH 142053Z 19004KT 10SM OVC070 M01/M02 A2947 RMK AO2 SLP980 T10061017 56010=
PALU 142055Z AUTO 08017KT 5SM -SHSN OVC011 M10/M11 A2955 RMK AO2
 SNB1955E2008SHSNB2008 SLP007 P0000 60000 T11001112 55001=
PAMC 142053Z AUTO 00000KT 1/4SM FZFG VV006 M02/M03 A2959 RMK AO2 SLP026 I3001
 T10171033 53001 TSNO=
PAMH 142056Z 30003KT 10SM CLR M04/M05 A2954 RMK AO2 SLP296 57017 PWINO FZRANO
 RVRNO=
PAMM 142056Z AUTO 18005KT 10SM FEW007 SCT027 OVC039 08/07 A3009 RMK AO2 RAE20
 SLP181 P0001 60002 T00830067 53007=
PAMR 142053Z 00000KT 10SM FEW055 OVC075 M01/M02 A2945 RMK AO2 SLP976 T10061022
 58010=
PANC 142053Z 00000KT 10SM OVC070 00/M02 A2946 RMK AO2 SLP976 T00001017 58010=
PANI 142056Z AUTO 00000KT 10SM FEW009 BKN100 M06/M06 A2958 RMK AO2 SLP985
 T10561061 56005 FZRANO=
PANN 142053Z AUTO 08004KT CLR M06/M07 A2956 RMK AO2 SLP020 T10611072 55008
 PWINO FZRANO TSNO $=
PANT 142053Z AUTO VRB04KT 10SM FEW016 OVC025 08/07 A3008 RMK AO2 SLP187 60012
 T00780072 53005 TSNO=
PAOM 142053Z 20012KT 10SM OVC038 M05/M07 A2953 RMK AO2 SLP000 T10501067 53005=
PAOR 142053Z 00000KT 2SM -SN BR BKN025 OVC030 M10/M11 A2941 RMK AO2 SLP012
 T11001106 58027=
PAOT 142053Z 22007KT 10SM SCT007 BKN012 OVC027 M02/M03 A2949 RMK AO2 SLP987
 60000 I3000 T10221028 53022 $=
PAPB 142053Z AUTO 12023G30KT 3/4SM -SN BR FEW007 OVC019 01/01 A2924 RMK AO2 PK
 WND 12030/2045 UPB30E38SNE30B31E32B38 SLP891 P0001 60001 T00110006 56031 TSNO=
PAPG 142056Z 20010G19KT 4SM -RA BR FEW017 BKN028 OVC043 08/06 RMK AO2 SLPNO
 P0003 60018 T00830061 $=
PAPH 142056Z AUTO 00000KT 10SM OVC049 01/00 A2957 RMK AO2 SLP018 T00110000
 55000 FZRANO=
PAPO 142056Z AUTO 08014KT 4SM -SN BR CLR M04/M06 A2945 RMK AO2 SLP972 P0000
 60000 T10441056 52007 FZRANO=
PARC 142056Z AUTO 16003KT 10SM OVC010 M06/M07 A2951 RMK AO2 SLP046 T10611067
 56005 FZRANO=
PASA 142056Z AUTO 20012KT 9SM -SN OVC033 M07/M11 A2954 RMK AO2 SLP006 P0000
 60000 T10671106 53000 FZRANO $=
PASC 142053Z 06021KT 2SM -SN BLSN FEW008 OVC043 M13/M14 A2967 RMK AO2 PK WND
 06029/2033 SLP049 VIS 1V3 P0000 60000 T11281139 51004=
PASD 142056Z 22009KT 10SM SCT021 BKN028 BKN044 04/M01 A2959 RMK AO2 SLP024 KH
 6//// T00391006 51009 PNO $=
PASH 142056Z AUTO 21014KT 10SM FEW020 BKN037 M07/M08 A2947 RMK AO2 SLP979 60000
 T10721083 53009 FZRANO=
PASI 142053Z 19009KT 7SM SCT022 OVC036 07/06 A2992 RMK AO2 RAB13E41 SLP131
 P0001 60003 T00720056 51039=
PASK 142052Z AUTO 09005KT 3SM -SN BR OVC027 M03/M03 A2956 RMK AO2 SLP009 P0000
 60000 T10281033 51017 FZRANO $=
PASL 142056Z AUTO 00000KT 3/4SM BR OVC009 M01/M01 A2961 RMK AO2 CIG 004V011
 SLPNO T10061006 53003 FZRANO=
PASM 142056Z AUTO 00000KT M1/4SM FZFG OVC002 M09/M10 A2960 RMK AO2 SLP041
 T10891100 53005 FZRANO=
PASN 142053Z AUTO 10019KT 5SM -SN FEW020 OVC030 01/M02 A2927 RMK AO2 PK WND
 10030/2028 SLP914 P0000 60000 T00111022 56030 TSNO=
PASO 142053Z AUTO 36004KT 10SM FEW011 OVC020 01/01 A2951 RMK AO2 SLP994 I1000
 I3000 T00110006 55001 TSNO=
PASV 142055Z 02001KT 10SM OVC039 M04/M04 A2951 RMK AO2A SLP018 LSR14UP11DN
 5////=
PASX 142056Z AUTO 00000KT 10SM OVC060 M03/M03 A2951 RMK AO2 SLP002 T10281033
 56011 FZRANO=
PATA 142052Z 00000KT 10SM BKN008 M06/M07 A2961 RMK AO2 SLP032 T10561072 56006
 PNO=
PATC 142055Z AUTO 26019KT 10SM SCT011 BKN034 BKN100 M05/M06 A2945 RMK AO2
 SLP977 T10511060 52014 $=
PATG 142056Z AUTO VRB03KT 9SM BKN007 OVC013 01/01 A2956 RMK AO2 SLP105 60000
 T00110006 53002 FZRANO=
PATK 142053Z 00000KT 10SM OVC100 M04/M06 A2943 RMK AO2 SLP972 T10391061 56021 $=
PATL 142055Z 00000KT 2 1/2SM -SHSN BR BKN013 OVC029 M02/M02 A2959 RMK AO2A
 SLP035 LSR09 6//// 5////=
PATO 142053Z AUTO 28010G17KT 2SM -SN BR OVC024 00/M01 A2942 RMK AO2 SLP962
 P0000 60001 T00001011 56008 TSNO=
PAUN 142056Z AUTO 11006KT 10SM FEW002 SCT017 OVC027 M03/M03 A2959 RMK AO2
 SNB36E48 SLP023 P0000 60000 T10331033 50000 FZRANO=
PAVD 142056Z 27004KT 1/2SM BKN000 BKN040 OVC060 01/01 A2931 RMK AO2 SLP950
 2051Z WEA: -RA FG FG BKN000 TWR WND 20005KT 6//// T00110006 56023 $=
PAVL 142053Z AUTO 14008KT 1 1/2SM -SN BR OVC020 M01/M02 A2943 RMK AO2 SLP966
 P0000 60000 T10111017 53006 TSNO $=
PAWD 142053Z AUTO 02011G19KT 10SM FEW046 SCT060 OVC090 04/00 A2938 RMK AO2
 SLP950 T00440000 56017 TSNO=
PAWG 142056Z 19006KT 8SM -RA BKN035 OVC040 08/07 A3001 RMK (KB)=
PAWN 142056Z AUTO 16009KT 2SM -SN BR OVC004 M02/M02 A2948 RMK AO2 SLP996 P0000
 60002 T10171022 53012 FZRANO=
PAWS 142056Z AUTO 00000KT 10SM OVC065 M03/M04 A2944 RMK AO2 SLP985 T10281039
 56014 FZRANO=
PAYA 142053Z AUTO 17013G24KT 1 3/4SM -RA BR OVC004 08/07 A2953 RMK AO2 PK WND
 15029/2003 SLP999 P0001 60001 T00830072 53033 TSNO $=
PAZK 142056Z AUTO 23006KT 3/4SM -SN BR OVC008 M04/M04 A2931 RMK AO2 CIG 007V010
 SLP981 P0004 60012 T10391044 56013 FZRANO=
PPIZ 142056Z AUTO 05031G35KT 1/2SM SN FZFG OVC006 M14/M16 A2964 RMK AO2 PK WND
 05035/2048 CIG 003V007 SLP042 P0000 60000 T11391156 51000 FZRANO TSNO=